createdAt,value
2022-10-23T00:01:44.703Z,12.44
2022-10-23T00:04:17.620Z,12.37
2022-10-23T00:06:45.083Z,12.32
2022-10-23T00:09:13.898Z,12.38
2022-10-23T00:11:43.802Z,12.38
2022-10-23T00:14:11.135Z,12.17
2022-10-23T00:16:37.771Z,11.99
2022-10-23T00:19:04.512Z,11.87
2022-10-23T00:21:31.651Z,11.85
2022-10-23T00:23:58.450Z,11.89
2022-10-23T00:26:25.092Z,11.93
2022-10-23T00:28:53.435Z,12.08
2022-10-23T00:31:21.542Z,11.97
2022-10-23T00:33:49.420Z,11.89
2022-10-23T00:36:17.692Z,11.82
2022-10-23T00:38:45.221Z,11.75
2022-10-23T00:41:23.159Z,11.83
2022-10-23T00:44:07.488Z,11.90
2022-10-23T00:46:35.843Z,11.86
2022-10-23T00:49:04.163Z,11.87
2022-10-23T00:51:36.135Z,11.79
2022-10-23T00:56:59.345Z,11.62
2022-10-23T00:59:26.454Z,11.53
2022-10-23T01:01:54.006Z,11.48
2022-10-23T01:04:21.575Z,11.60
2022-10-23T01:07:13.055Z,11.66
2022-10-23T01:10:16.915Z,11.59
2022-10-23T01:12:57.285Z,11.75
2022-10-23T01:15:43.434Z,11.82
2022-10-23T01:18:18.226Z,11.87
2022-10-23T01:20:48.377Z,11.94
2022-10-23T01:23:27.853Z,11.99
2022-10-23T01:26:10.104Z,11.94
2022-10-23T01:28:45.328Z,11.94
2022-10-23T01:31:17.260Z,11.94
2022-10-23T01:33:49.205Z,11.79
2022-10-23T01:36:19.015Z,11.67
2022-10-23T01:39:00.198Z,11.67
2022-10-23T01:41:31.761Z,11.65
2022-10-23T01:44:07.064Z,11.70
2022-10-23T01:46:35.800Z,11.78
2022-10-23T01:49:03.962Z,11.87
2022-10-23T01:51:34.655Z,11.91
2022-10-23T01:54:02.162Z,11.96
2022-10-23T01:56:33.940Z,11.94
2022-10-23T01:59:06.340Z,11.89
2022-10-23T02:01:36.747Z,11.83
2022-10-23T02:04:08.685Z,11.83
2022-10-23T02:06:35.346Z,11.90
2022-10-23T02:09:02.309Z,11.89
2022-10-23T02:11:30.129Z,11.90
2022-10-23T02:14:06.961Z,11.97
2022-10-23T02:16:52.632Z,11.94
2022-10-23T02:19:34.474Z,12.00
2022-10-23T02:22:03.889Z,12.03
2022-10-23T02:24:49.040Z,12.08
2022-10-23T02:27:22.006Z,12.07
2022-10-23T02:29:51.920Z,12.03
2022-10-23T02:32:21.399Z,12.13
2022-10-23T02:34:49.618Z,12.17
2022-10-23T02:37:17.048Z,12.17
2022-10-23T02:39:44.958Z,11.87
2022-10-23T02:42:16.064Z,11.80
2022-10-23T02:45:03.515Z,11.93
2022-10-23T02:47:46.132Z,11.80
2022-10-23T02:50:50.003Z,11.90
2022-10-23T02:53:29.613Z,12.01
2022-10-23T02:56:08.302Z,12.08
2022-10-23T02:58:47.655Z,12.21
2022-10-23T03:01:23.012Z,12.21
2022-10-23T03:03:55.470Z,12.32
2022-10-23T03:06:24.291Z,12.32
2022-10-23T03:08:58.371Z,12.27
2022-10-23T03:11:25.425Z,12.31
2022-10-23T03:13:52.374Z,12.31
2022-10-23T03:16:18.977Z,12.34
2022-10-23T03:18:45.907Z,12.14
2022-10-23T03:21:12.520Z,12.08
2022-10-23T03:23:38.996Z,12.01
2022-10-23T03:26:05.671Z,12.11
2022-10-23T03:28:32.350Z,12.14
2022-10-23T03:30:58.845Z,12.20
2022-10-23T03:33:25.369Z,12.22
2022-10-23T03:35:51.842Z,12.24
2022-10-23T03:38:18.582Z,12.28
2022-10-23T03:40:45.837Z,12.27
2022-10-23T03:43:14.652Z,12.31
2022-10-23T03:45:41.322Z,12.35
2022-10-23T03:48:08.082Z,12.39
2022-10-23T03:50:35.534Z,12.34
2022-10-23T03:53:02.153Z,12.31
2022-10-23T03:55:29.132Z,12.39
2022-10-23T03:57:55.619Z,12.42
2022-10-23T04:00:22.308Z,12.41
2022-10-23T04:02:51.726Z,12.47
2022-10-23T04:05:18.435Z,12.45
2022-10-23T04:07:44.897Z,12.45
2022-10-23T04:10:11.423Z,12.51
2022-10-23T04:12:37.996Z,12.48
2022-10-23T04:15:05.608Z,12.21
2022-10-23T04:17:32.290Z,12.21
2022-10-23T04:19:58.797Z,12.22
2022-10-23T04:22:28.307Z,12.24
2022-10-23T04:24:55.653Z,12.28
2022-10-23T04:27:22.434Z,12.34
2022-10-23T04:29:49.350Z,12.38
2022-10-23T04:32:16.024Z,12.25
2022-10-23T04:34:42.528Z,12.39
2022-10-23T04:37:08.998Z,12.39
2022-10-23T04:39:35.534Z,12.34
2022-10-23T04:42:05.335Z,12.24
2022-10-23T04:44:32.248Z,12.28
2022-10-23T04:46:58.836Z,12.32
2022-10-23T04:49:25.354Z,12.39
2022-10-23T04:51:51.941Z,12.47
2022-10-23T04:54:18.663Z,12.55
2022-10-23T04:56:45.239Z,12.44
2022-10-23T04:59:12.157Z,12.54
2022-10-23T05:01:38.762Z,12.58
2022-10-23T05:04:05.420Z,12.61
2022-10-23T05:06:32.057Z,12.58
2022-10-23T05:08:58.557Z,12.54
2022-10-23T05:11:25.127Z,12.52
2022-10-23T05:13:51.639Z,12.58
2022-10-23T05:16:44.477Z,12.61
2022-10-23T05:19:14.794Z,12.64
2022-10-23T05:21:41.587Z,12.68
2022-10-23T05:24:08.403Z,12.76
2022-10-23T05:26:34.917Z,12.75
2022-10-23T05:29:04.115Z,12.68
2022-10-23T05:31:31.309Z,12.58
2022-10-23T05:33:57.978Z,12.57
2022-10-23T05:36:25.644Z,12.65
2022-10-23T05:38:52.834Z,12.72
2022-10-23T05:41:19.476Z,12.76
2022-10-23T05:43:46.401Z,12.83
2022-10-23T05:46:13.040Z,12.90
2022-10-23T05:48:39.573Z,12.92
2022-10-23T05:51:08.222Z,12.95
2022-10-23T05:53:36.215Z,12.99
2022-10-23T05:56:08.985Z,13.00
2022-10-23T05:58:35.874Z,12.97
2022-10-23T06:01:07.587Z,13.02
2022-10-23T06:03:34.238Z,12.96
2022-10-23T06:06:00.790Z,12.93
2022-10-23T06:08:27.412Z,12.95
2022-10-23T06:10:53.976Z,12.99
2022-10-23T06:13:20.481Z,13.03
2022-10-23T06:15:47.136Z,13.12
2022-10-23T06:18:13.728Z,13.12
2022-10-23T06:20:40.439Z,13.13
2022-10-23T06:23:07.622Z,13.13
2022-10-23T06:25:34.263Z,13.17
2022-10-23T06:28:02.837Z,13.30
2022-10-23T06:33:40.831Z,13.37
2022-10-23T06:36:10.908Z,13.37
2022-10-23T06:38:40.334Z,13.43
2022-10-23T06:41:14.064Z,13.38
2022-10-23T06:43:41.154Z,13.46
2022-10-23T06:46:07.803Z,13.53
2022-10-23T06:48:34.500Z,13.57
2022-10-23T06:51:08.040Z,13.58
2022-10-23T06:53:35.938Z,13.64
2022-10-23T06:56:03.409Z,13.77
2022-10-23T06:58:30.294Z,13.92
2022-10-23T07:01:01.324Z,13.92
2022-10-23T07:03:28.115Z,13.92
2022-10-23T07:05:54.604Z,13.88
2022-10-23T07:08:21.810Z,13.94
2022-10-23T07:10:50.333Z,13.88
2022-10-23T07:13:17.765Z,13.96
2022-10-23T07:15:44.359Z,13.99
2022-10-23T07:18:14.652Z,14.02
2022-10-23T07:20:41.709Z,14.13
2022-10-23T07:23:13.432Z,14.17
2022-10-23T07:25:40.213Z,14.17
2022-10-23T07:28:07.631Z,14.34
2022-10-23T07:30:34.778Z,14.43
2022-10-23T07:33:02.202Z,14.59
2022-10-23T07:35:32.109Z,14.80
2022-10-23T07:38:02.409Z,15.04
2022-10-23T07:40:28.924Z,15.22
2022-10-23T07:42:56.362Z,15.32
2022-10-23T07:45:22.906Z,15.46
2022-10-23T07:47:53.436Z,15.60
2022-10-23T07:50:20.199Z,15.81
2022-10-23T07:52:48.194Z,16.21
2022-10-23T07:55:14.970Z,16.59
2022-10-23T07:57:41.469Z,16.79
2022-10-23T08:00:10.137Z,16.90
2022-10-23T08:02:36.875Z,17.21
2022-10-23T08:05:04.055Z,17.34
2022-10-23T08:07:35.144Z,17.58
2022-10-23T08:10:05.316Z,17.68
2022-10-23T08:12:37.961Z,17.92
2022-10-23T08:15:05.028Z,17.75
2022-10-23T08:17:31.602Z,17.87
2022-10-23T08:19:58.517Z,17.65
2022-10-23T08:22:25.191Z,17.76
2022-10-23T08:24:51.803Z,17.27
2022-10-23T08:27:19.068Z,17.10
2022-10-23T08:29:45.650Z,17.42
2022-10-23T08:32:12.412Z,17.57
2022-10-23T08:34:39.882Z,17.69
2022-10-23T08:37:07.052Z,17.58
2022-10-23T08:39:38.050Z,17.76
2022-10-23T08:42:05.160Z,17.54
2022-10-23T08:44:52.545Z,17.37
2022-10-23T08:47:25.116Z,17.24
2022-10-23T08:49:59.241Z,17.08
2022-10-23T08:52:50.793Z,17.10
2022-10-23T08:55:31.424Z,17.02
2022-10-23T08:58:04.881Z,17.07
2022-10-23T09:00:32.079Z,17.15
2022-10-23T09:03:03.627Z,17.28
2022-10-23T09:05:49.374Z,17.28
2022-10-23T09:08:34.163Z,17.24
2022-10-23T09:11:08.299Z,17.85
2022-10-23T09:13:43.909Z,18.29
2022-10-23T09:16:35.382Z,19.13
2022-10-23T09:19:02.404Z,19.36
2022-10-23T09:21:30.183Z,19.39
2022-10-23T09:23:56.975Z,19.74
2022-10-23T09:26:23.758Z,19.18
2022-10-23T09:28:55.225Z,18.99
2022-10-23T09:31:21.835Z,19.19
2022-10-23T09:33:59.856Z,18.75
2022-10-23T09:36:29.410Z,18.54
2022-10-23T09:39:01.739Z,18.98
2022-10-23T09:41:35.963Z,19.35
2022-10-23T09:44:08.163Z,19.80
2022-10-23T09:49:23.752Z,19.15
2022-10-23T09:52:02.051Z,19.13
2022-10-23T09:54:33.055Z,19.10
2022-10-23T09:57:18.120Z,19.32
2022-10-23T09:59:44.651Z,19.43
2022-10-23T10:02:41.495Z,19.36
2022-10-23T10:05:26.365Z,18.95
2022-10-23T10:08:00.298Z,18.96
2022-10-23T10:10:33.643Z,19.01
2022-10-23T10:13:11.949Z,18.82
2022-10-23T10:15:53.021Z,18.72
2022-10-23T10:18:41.624Z,18.72
2022-10-23T10:21:23.188Z,18.72
2022-10-23T10:23:53.799Z,18.72
2022-10-23T10:26:48.320Z,18.61
2022-10-23T10:29:29.749Z,18.57
2022-10-23T10:32:20.721Z,18.54
2022-10-23T10:35:24.686Z,18.58
2022-10-23T10:38:11.222Z,18.58
2022-10-23T10:40:56.654Z,18.70
2022-10-23T10:43:41.661Z,18.72
2022-10-23T10:46:25.805Z,18.71
2022-10-23T10:49:15.241Z,18.58
2022-10-23T10:52:00.035Z,18.65
2022-10-23T10:54:45.167Z,18.64
2022-10-23T10:57:31.193Z,18.68
2022-10-23T11:00:02.153Z,18.58
2022-10-23T11:02:35.678Z,18.64
2022-10-23T11:05:26.944Z,18.57
2022-10-23T11:07:58.875Z,18.57
2022-10-23T11:10:27.759Z,18.63
2022-10-23T11:12:54.525Z,18.57
2022-10-23T11:15:27.142Z,18.63
2022-10-23T11:17:59.718Z,18.61
2022-10-23T11:20:40.037Z,18.51
2022-10-23T11:23:37.501Z,18.34
2022-10-23T11:26:19.590Z,18.21
2022-10-23T11:28:59.493Z,18.17
2022-10-23T11:31:39.857Z,18.00
2022-10-23T11:34:09.109Z,17.59
2022-10-23T11:36:53.348Z,17.26
2022-10-23T11:39:29.560Z,17.23
2022-10-23T11:42:15.638Z,17.26
2022-10-23T11:44:51.331Z,17.32
2022-10-23T11:47:39.734Z,17.42
2022-10-23T11:50:07.022Z,17.57
2022-10-23T11:52:45.537Z,17.82
2022-10-23T11:55:20.399Z,18.44
2022-10-23T11:58:05.252Z,18.91
2022-10-23T12:00:34.928Z,19.06
2022-10-23T12:03:03.194Z,19.06
2022-10-23T12:05:41.690Z,19.02
2022-10-23T12:08:22.178Z,19.33
2022-10-23T12:10:52.871Z,19.43
2022-10-23T12:13:36.252Z,19.29
2022-10-23T12:16:05.010Z,19.38
2022-10-23T12:18:31.767Z,19.46
2022-10-23T12:21:00.219Z,19.18
2022-10-23T12:23:54.723Z,19.13
2022-10-23T12:26:50.793Z,19.09
2022-10-23T12:29:27.912Z,19.08
2022-10-23T12:32:07.361Z,19.16
2022-10-23T12:35:06.112Z,19.36
2022-10-23T12:38:00.898Z,19.43
2022-10-23T12:40:30.184Z,19.56
2022-10-23T12:42:59.241Z,19.40
2022-10-23T12:45:30.275Z,19.28
2022-10-23T12:47:56.973Z,19.28
2022-10-23T12:50:37.141Z,19.18
2022-10-23T12:53:07.662Z,19.22
2022-10-23T12:56:04.224Z,19.10
2022-10-23T12:58:34.167Z,19.01
2022-10-23T13:01:05.977Z,19.05
2022-10-23T13:03:34.873Z,18.96
2022-10-23T13:06:03.093Z,18.94
2022-10-23T13:08:39.596Z,18.89
2022-10-23T13:11:06.940Z,18.92
2022-10-23T13:13:33.615Z,18.89
2022-10-23T13:16:00.114Z,18.82
2022-10-23T13:18:26.814Z,18.82
2022-10-23T13:20:53.339Z,18.81
2022-10-23T13:23:33.931Z,18.78
2022-10-23T13:26:01.851Z,18.77
2022-10-23T13:28:48.853Z,18.75
2022-10-23T13:31:15.529Z,18.78
2022-10-23T13:33:47.916Z,18.72
2022-10-23T13:36:17.586Z,18.75
2022-10-23T13:38:46.571Z,18.80
2022-10-23T13:41:17.440Z,18.80
2022-10-23T13:43:45.421Z,18.85
2022-10-23T13:46:18.456Z,18.91
2022-10-23T13:48:45.227Z,18.88
2022-10-23T13:51:19.147Z,18.88
2022-10-23T13:53:46.147Z,18.85
2022-10-23T13:56:14.181Z,18.81
2022-10-23T13:58:40.717Z,18.82
2022-10-23T14:01:12.658Z,18.85
2022-10-23T14:03:39.134Z,18.84
2022-10-23T14:06:05.983Z,18.84
2022-10-23T14:08:32.516Z,18.81
2022-10-23T14:11:02.350Z,18.80
2022-10-23T14:13:28.966Z,18.78
2022-10-23T14:15:55.873Z,18.82
2022-10-23T14:18:22.450Z,18.80
2022-10-23T14:20:49.090Z,18.81
2022-10-23T14:23:15.645Z,18.88
2022-10-23T14:25:42.277Z,18.82
2022-10-23T14:28:09.002Z,18.81
2022-10-23T14:30:38.704Z,18.78
2022-10-23T14:33:05.245Z,18.77
2022-10-23T14:35:31.957Z,18.78
2022-10-23T14:37:58.631Z,18.78
2022-10-23T14:40:26.419Z,18.80
2022-10-23T14:42:53.035Z,18.75
2022-10-23T14:45:20.926Z,18.72
2022-10-23T14:47:47.500Z,18.70
2022-10-23T14:50:14.176Z,18.71
2022-10-23T14:52:40.755Z,18.72
2022-10-23T14:55:10.599Z,18.68
2022-10-23T14:57:37.683Z,18.64
2022-10-23T15:00:06.377Z,18.64
2022-10-23T15:02:32.901Z,18.54
2022-10-23T15:04:59.427Z,18.54
2022-10-23T15:07:26.816Z,18.50
2022-10-23T15:09:57.168Z,18.47
2022-10-23T15:12:25.120Z,18.43
2022-10-23T15:14:52.950Z,18.40
2022-10-23T15:17:19.440Z,18.41
2022-10-23T15:19:46.022Z,18.43
2022-10-23T15:22:13.727Z,18.33
2022-10-23T15:24:41.354Z,18.33
2022-10-23T15:29:54.270Z,18.29
2022-10-23T15:32:20.841Z,18.20
2022-10-23T15:34:49.766Z,18.19
2022-10-23T15:37:16.501Z,18.16
2022-10-23T15:39:43.413Z,18.17
2022-10-23T15:42:10.233Z,18.14
2022-10-23T15:44:37.354Z,18.23
2022-10-23T15:47:04.051Z,18.08
2022-10-23T15:49:30.897Z,18.10
2022-10-23T15:51:58.222Z,18.06
2022-10-23T15:54:28.114Z,18.05
2022-10-23T15:56:57.455Z,17.98
2022-10-23T15:59:25.349Z,17.92
2022-10-23T16:01:52.419Z,17.95
2022-10-23T16:04:19.520Z,17.92
2022-10-23T16:06:46.185Z,17.93
2022-10-23T16:09:13.452Z,17.81
2022-10-23T16:11:41.604Z,17.72
2022-10-23T16:14:11.746Z,17.72
2022-10-23T16:16:38.274Z,17.65
2022-10-23T16:19:05.438Z,17.61
2022-10-23T16:21:35.728Z,17.50
2022-10-23T16:24:05.304Z,17.28
2022-10-23T16:26:34.854Z,17.23
2022-10-23T16:29:05.650Z,17.11
2022-10-23T16:31:34.228Z,16.99
2022-10-23T16:34:02.001Z,16.90
2022-10-23T16:36:29.445Z,16.86
2022-10-23T16:38:57.713Z,16.82
2022-10-23T16:41:26.016Z,16.76
2022-10-23T16:43:53.908Z,16.63
2022-10-23T16:46:22.001Z,16.55
2022-10-23T16:49:12.089Z,16.39
2022-10-23T16:51:38.646Z,16.31
2022-10-23T16:54:05.472Z,16.17
2022-10-23T16:56:32.314Z,16.10
2022-10-23T16:58:59.940Z,16.03
2022-10-23T17:01:30.046Z,16.05
2022-10-23T17:03:57.331Z,15.87
2022-10-23T17:06:27.156Z,15.91
2022-10-23T17:08:55.170Z,15.94
2022-10-23T17:11:30.520Z,16.04
2022-10-23T17:14:06.013Z,16.01
2022-10-23T17:16:36.891Z,15.97
2022-10-23T17:19:15.955Z,15.94
2022-10-23T17:21:47.833Z,15.96
2022-10-23T17:24:14.401Z,15.96
2022-10-23T17:26:42.702Z,15.97
2022-10-23T17:29:11.120Z,16.00
2022-10-23T17:31:40.149Z,16.01
2022-10-23T17:34:19.516Z,15.98
2022-10-23T17:36:48.905Z,16.00
2022-10-23T17:39:26.678Z,16.00
2022-10-23T17:41:54.340Z,15.98
2022-10-23T17:44:21.119Z,16.00
2022-10-23T17:46:53.909Z,16.05
2022-10-23T17:49:21.025Z,16.07
2022-10-23T17:58:40.170Z,16.07
2022-10-23T18:01:06.914Z,16.03
2022-10-23T18:03:38.426Z,16.03
2022-10-23T18:06:15.092Z,16.07
2022-10-23T18:11:29.186Z,16.03
2022-10-23T18:19:26.555Z,15.98
2022-10-23T18:21:53.232Z,16.00
2022-10-23T18:24:23.231Z,15.94
2022-10-23T18:26:49.830Z,15.98
2022-10-23T18:29:17.499Z,15.97
2022-10-23T18:31:50.347Z,15.91
2022-10-23T18:34:21.300Z,15.93
2022-10-23T18:39:29.972Z,15.89
2022-10-23T18:41:57.950Z,15.87
2022-10-23T18:44:28.837Z,15.87
2022-10-23T18:46:57.227Z,15.86
2022-10-23T18:49:24.001Z,15.83
2022-10-23T18:54:31.915Z,15.76
2022-10-23T18:59:39.077Z,15.70
2022-10-23T19:02:05.687Z,15.71
2022-10-23T19:04:35.546Z,15.71
2022-10-23T19:07:03.193Z,15.73
2022-10-23T19:09:33.258Z,15.69
2022-10-23T19:12:02.239Z,15.69
2022-10-23T19:14:29.987Z,15.70
2022-10-23T19:17:02.643Z,15.64
2022-10-23T19:19:41.487Z,15.63
2022-10-23T19:22:11.172Z,15.62
2022-10-23T19:24:59.668Z,15.56
2022-10-23T19:27:27.218Z,15.49
2022-10-23T19:29:55.128Z,15.45
2022-10-23T19:35:03.320Z,15.36
2022-10-23T19:40:14.086Z,15.25
2022-10-23T19:42:42.578Z,15.21
2022-10-23T19:47:55.090Z,15.24
2022-10-23T19:53:02.095Z,15.24
2022-10-23T19:55:28.660Z,15.28
2022-10-23T19:57:56.777Z,15.21
2022-10-23T20:00:24.213Z,15.16
2022-10-23T20:05:31.637Z,15.15
2022-10-23T20:07:58.454Z,15.09
2022-10-23T20:10:33.386Z,15.12
2022-10-23T20:13:18.265Z,15.09
2022-10-23T20:15:46.156Z,15.02
2022-10-23T20:18:12.939Z,14.99
2022-10-23T20:20:41.341Z,15.01
2022-10-23T20:23:07.918Z,15.01
2022-10-23T20:25:34.422Z,15.04
2022-10-23T20:28:01.049Z,15.01
2022-10-23T20:33:08.587Z,15.12
2022-10-23T20:38:23.191Z,15.09
2022-10-23T20:43:34.642Z,15.18
2022-10-23T20:48:45.644Z,15.19
2022-10-23T20:53:55.741Z,15.25
2022-10-23T20:56:33.738Z,15.35
2022-10-23T20:59:02.281Z,15.40
2022-10-23T21:01:30.417Z,15.43
2022-10-23T21:03:59.565Z,15.46
2022-10-23T21:06:31.495Z,15.42
2022-10-23T21:09:04.820Z,15.39
2022-10-23T21:11:34.685Z,15.36
2022-10-23T21:14:01.688Z,15.33
2022-10-23T21:16:32.234Z,15.40
2022-10-23T21:18:59.913Z,15.52
2022-10-23T21:21:38.885Z,15.54
2022-10-23T21:24:09.958Z,15.50
2022-10-23T21:26:37.006Z,15.54
2022-10-23T21:29:17.877Z,15.56
2022-10-23T21:31:48.525Z,15.54
2022-10-23T21:34:15.217Z,15.53
2022-10-23T21:37:11.403Z,15.52
2022-10-23T21:39:34.387Z,15.52
2022-10-23T21:42:06.522Z,15.50
2022-10-23T21:44:35.205Z,15.45
2022-10-23T21:47:01.813Z,15.46
2022-10-23T21:49:28.827Z,15.39
2022-10-23T21:51:55.617Z,15.38
2022-10-23T21:54:22.625Z,15.36
2022-10-23T21:56:51.609Z,15.38
2022-10-23T21:59:21.091Z,15.38
2022-10-23T22:01:48.906Z,15.38
2022-10-23T22:04:17.492Z,15.33
2022-10-23T22:06:44.914Z,15.33
2022-10-23T22:09:17.461Z,15.39
2022-10-23T22:11:44.182Z,15.38
2022-10-23T22:14:10.871Z,15.40
2022-10-23T22:16:37.440Z,15.43
2022-10-23T22:19:04.440Z,15.43
2022-10-23T22:21:31.107Z,15.42
2022-10-23T22:23:59.907Z,15.40
2022-10-23T22:26:32.635Z,15.39
2022-10-23T22:29:01.626Z,15.38
2022-10-23T22:31:31.945Z,15.33
2022-10-23T22:33:59.950Z,15.39
2022-10-23T22:36:29.467Z,15.31
2022-10-23T22:38:56.837Z,15.31
2022-10-23T22:41:23.961Z,15.25
2022-10-23T22:43:58.177Z,15.22
2022-10-23T22:46:26.245Z,15.14
2022-10-23T22:48:53.101Z,15.09
2022-10-23T22:51:21.834Z,15.09
2022-10-23T22:53:48.419Z,15.11
2022-10-23T22:56:17.589Z,15.06
2022-10-23T22:58:44.697Z,14.99
2022-10-23T23:01:18.474Z,14.99
2022-10-23T23:03:45.842Z,14.99
2022-10-23T23:06:13.313Z,15.01
2022-10-23T23:08:41.063Z,14.98
2022-10-23T23:11:08.681Z,14.99
2022-10-23T23:13:35.633Z,14.92
2022-10-23T23:16:03.405Z,14.95
2022-10-23T23:18:30.311Z,14.95
2022-10-23T23:21:04.490Z,14.92
2022-10-23T23:23:31.855Z,14.94
2022-10-23T23:25:58.804Z,15.01
2022-10-23T23:28:25.439Z,15.06
2022-10-23T23:31:03.780Z,15.02
2022-10-23T23:33:30.646Z,15.09
2022-10-23T23:35:57.343Z,15.06
2022-10-23T23:38:23.944Z,15.08
2022-10-23T23:40:53.001Z,15.08
2022-10-23T23:43:20.168Z,15.09
2022-10-23T23:45:46.858Z,15.14
2022-10-23T23:48:13.485Z,15.04
2022-10-23T23:50:40.121Z,14.94
2022-10-23T23:53:06.668Z,14.96
2022-10-23T23:55:33.267Z,15.02
